createdAt,value
2022-11-22T00:00:10.338Z,21.77
2022-11-22T00:03:13.535Z,21.43
2022-11-22T00:09:40.870Z,19.52
2022-11-22T00:12:44.681Z,21.67
2022-11-22T00:15:59.545Z,20.33
2022-11-22T00:19:02.324Z,20.37
2022-11-22T00:22:08.376Z,23.10
2022-11-22T00:25:11.616Z,23.00
2022-11-22T00:28:15.710Z,22.55
2022-11-22T00:31:18.517Z,21.10
2022-11-22T00:34:22.652Z,22.63
2022-11-22T00:37:26.940Z,19.95
2022-11-22T00:40:30.893Z,18.65
2022-11-22T00:43:35.016Z,21.83
2022-11-22T00:46:39.112Z,20.80
2022-11-22T00:49:41.914Z,19.50
2022-11-22T00:52:49.847Z,22.30
2022-11-22T00:55:52.811Z,24.25
2022-11-22T00:58:56.943Z,21.38
2022-11-22T01:01:59.777Z,22.73
2022-11-22T01:05:03.797Z,22.97
2022-11-22T01:08:08.358Z,23.08
2022-11-22T01:11:13.353Z,22.13
2022-11-22T01:14:16.434Z,23.55
2022-11-22T01:17:20.684Z,23.53
2022-11-22T01:20:25.256Z,24.57
2022-11-22T01:23:30.624Z,24.75
2022-11-22T01:26:36.900Z,25.10
2022-11-22T01:29:41.293Z,24.98
2022-11-22T01:32:44.937Z,22.83
2022-11-22T01:35:49.117Z,25.53
2022-11-22T01:38:53.285Z,23.25
2022-11-22T01:41:57.387Z,26.67
2022-11-22T01:45:35.555Z,27.88
2022-11-22T01:48:52.297Z,25.07
2022-11-22T01:52:00.770Z,25.83
2022-11-22T01:55:09.538Z,27.77
2022-11-22T01:58:16.393Z,25.63
2022-11-22T02:01:19.281Z,24.88
2022-11-22T02:04:27.425Z,25.60
2022-11-22T02:07:37.829Z,23.57
2022-11-22T02:10:47.809Z,26.70
2022-11-22T02:13:54.748Z,24.85
2022-11-22T02:16:57.635Z,24.55
2022-11-22T02:20:01.630Z,24.83
2022-11-22T02:23:11.320Z,20.17
2022-11-22T02:26:17.210Z,25.83
2022-11-22T02:32:42.530Z,25.15
2022-11-22T02:35:46.945Z,27.57
2022-11-22T02:38:49.919Z,28.70
2022-11-22T02:41:57.926Z,26.05
2022-11-22T02:45:01.915Z,25.85
2022-11-22T02:48:09.674Z,25.17
2022-11-22T02:51:17.924Z,26.07
2022-11-22T02:54:21.062Z,24.03
2022-11-22T02:57:26.476Z,25.00
2022-11-22T03:00:29.396Z,25.05
2022-11-22T03:03:34.446Z,27.30
2022-11-22T03:06:37.127Z,27.43
2022-11-22T03:09:41.137Z,27.70
2022-11-22T03:12:46.478Z,27.50
2022-11-22T03:15:49.264Z,24.52
2022-11-22T03:18:53.197Z,28.83
2022-11-22T03:21:55.834Z,26.43
2022-11-22T03:24:59.844Z,23.20
2022-11-22T03:28:03.906Z,26.27
2022-11-22T03:31:08.655Z,28.27
2022-11-22T03:34:12.920Z,25.48
2022-11-22T03:37:16.979Z,27.77
2022-11-22T03:40:21.091Z,25.13
2022-11-22T03:43:26.595Z,25.33
2022-11-22T03:46:29.411Z,25.67
2022-11-22T03:49:33.480Z,25.27
2022-11-22T03:52:36.225Z,29.77
2022-11-22T03:55:38.927Z,28.77
2022-11-22T03:58:44.244Z,25.35
2022-11-22T04:01:48.304Z,25.50
2022-11-22T04:04:51.063Z,28.98
2022-11-22T04:07:57.307Z,28.60
2022-11-22T04:10:59.991Z,28.07
2022-11-22T04:14:21.949Z,25.80
2022-11-22T04:17:38.532Z,25.88
2022-11-22T04:21:01.203Z,28.92
2022-11-22T04:24:24.454Z,28.30
2022-11-22T04:27:28.385Z,27.92
2022-11-22T04:30:51.752Z,25.45
2022-11-22T04:33:55.755Z,28.88
2022-11-22T04:36:58.741Z,24.25
2022-11-22T04:40:02.703Z,30.03
2022-11-22T04:43:23.273Z,25.30
2022-11-22T04:46:28.638Z,31.25
2022-11-22T04:49:31.470Z,31.23
2022-11-22T04:52:51.856Z,28.48
2022-11-22T04:55:54.772Z,23.93
2022-11-22T04:58:57.461Z,31.58
2022-11-22T05:02:02.827Z,28.00
2022-11-22T05:05:06.280Z,27.88
2022-11-22T05:08:11.058Z,28.45
2022-11-22T05:11:13.745Z,28.07
2022-11-22T05:14:16.495Z,29.85
2022-11-22T05:17:21.846Z,28.77
2022-11-22T05:20:24.525Z,26.80
2022-11-22T05:23:44.623Z,33.88
2022-11-22T05:26:47.287Z,29.75
2022-11-22T05:29:51.382Z,32.00
2022-11-22T05:32:56.000Z,30.87
2022-11-22T05:36:01.017Z,29.00
2022-11-22T05:39:04.945Z,31.45
2022-11-22T05:42:08.995Z,34.97
2022-11-22T05:45:12.155Z,29.40
2022-11-22T05:48:17.468Z,31.93
2022-11-22T05:51:22.101Z,31.88
2022-11-22T05:54:26.067Z,34.10
2022-11-22T05:57:29.236Z,35.33
2022-11-22T06:00:33.167Z,30.17
2022-11-22T06:03:38.068Z,33.00
2022-11-22T06:06:42.119Z,29.88
2022-11-22T06:09:44.848Z,30.92
2022-11-22T06:12:48.758Z,29.70
2022-11-22T06:15:51.425Z,28.00
2022-11-22T06:18:57.153Z,30.63
2022-11-22T06:21:59.878Z,34.40
2022-11-22T06:25:03.889Z,33.40
2022-11-22T06:31:30.802Z,28.10
2022-11-22T06:34:35.093Z,32.17
2022-11-22T06:37:37.867Z,32.28
2022-11-22T06:40:41.843Z,29.90
2022-11-22T06:43:48.989Z,31.63
2022-11-22T06:46:52.244Z,32.65
2022-11-22T06:49:57.545Z,31.87
2022-11-22T06:53:00.230Z,31.33
2022-11-22T06:56:03.621Z,31.60
2022-11-22T06:59:08.029Z,30.10
2022-11-22T07:02:13.081Z,29.70
2022-11-22T07:05:25.762Z,29.83
2022-11-22T07:08:29.089Z,30.92
2022-11-22T07:11:34.195Z,28.23
2022-11-22T07:14:38.587Z,31.50
2022-11-22T07:17:42.295Z,29.52
2022-11-22T07:20:48.107Z,29.17
2022-11-22T07:23:52.151Z,32.95
2022-11-22T07:26:54.857Z,30.08
2022-11-22T07:29:58.801Z,28.75
2022-11-22T07:33:01.462Z,31.60
2022-11-22T07:36:11.507Z,33.37
2022-11-22T07:39:14.480Z,27.08
2022-11-22T07:42:22.344Z,30.38
2022-11-22T07:45:28.741Z,31.98
2022-11-22T07:48:31.588Z,32.47
2022-11-22T07:51:35.598Z,31.37
2022-11-22T07:54:39.568Z,31.88
2022-11-22T07:57:42.362Z,28.55
2022-11-22T08:00:45.034Z,28.25
2022-11-22T08:03:49.254Z,30.52
2022-11-22T08:06:53.322Z,31.13
2022-11-22T08:09:56.930Z,32.83
2022-11-22T08:13:01.049Z,33.67
2022-11-22T08:16:06.113Z,32.08
2022-11-22T08:19:08.975Z,31.88
2022-11-22T08:22:14.332Z,33.60
2022-11-22T08:25:17.356Z,30.20
2022-11-22T08:28:20.187Z,32.70
2022-11-22T08:31:22.874Z,31.50
2022-11-22T08:34:25.927Z,31.27
2022-11-22T08:37:31.916Z,30.63
2022-11-22T08:40:41.173Z,32.72
2022-11-22T08:43:44.771Z,33.30
2022-11-22T08:46:48.976Z,33.38
2022-11-22T08:49:51.679Z,32.08
2022-11-22T08:52:57.055Z,29.93
2022-11-22T08:56:01.949Z,34.25
2022-11-22T08:59:06.368Z,31.65
2022-11-22T09:02:10.714Z,32.35
2022-11-22T09:05:14.685Z,33.65
2022-11-22T09:11:26.257Z,29.65
2022-11-22T09:14:29.284Z,33.70
2022-11-22T09:17:34.742Z,31.30
2022-11-22T09:20:39.112Z,31.95
2022-11-22T09:23:44.447Z,33.73
2022-11-22T09:26:47.239Z,34.38
2022-11-22T09:29:50.046Z,37.05
2022-11-22T09:32:54.026Z,34.05
2022-11-22T09:36:07.426Z,33.90
2022-11-22T09:43:04.158Z,34.10
2022-11-22T09:46:17.171Z,33.95
2022-11-22T09:49:28.555Z,34.22
2022-11-22T09:52:35.854Z,38.28
2022-11-22T09:55:44.652Z,39.70
2022-11-22T09:58:51.550Z,35.58
2022-11-22T10:02:11.595Z,34.20
2022-11-22T10:05:26.392Z,36.85
2022-11-22T10:08:40.982Z,32.67
2022-11-22T10:11:50.248Z,31.60
2022-11-22T10:14:58.824Z,36.33
2022-11-22T10:18:05.771Z,36.22
2022-11-22T10:21:12.638Z,36.17
2022-11-22T10:24:18.126Z,35.35
2022-11-22T10:27:22.882Z,32.90
2022-11-22T10:30:26.203Z,36.45
2022-11-22T10:37:07.457Z,34.58
2022-11-22T10:40:18.212Z,36.50
2022-11-22T10:43:35.325Z,39.07
2022-11-22T10:46:48.540Z,34.00
2022-11-22T10:50:00.857Z,38.25
2022-11-22T10:53:13.645Z,37.78
2022-11-22T10:56:28.182Z,35.33
2022-11-22T10:59:45.901Z,37.10
2022-11-22T11:03:07.150Z,34.08
2022-11-22T11:06:33.357Z,37.00
2022-11-22T11:13:15.317Z,32.65
2022-11-22T11:16:24.503Z,37.00
2022-11-22T11:19:31.352Z,35.10
2022-11-22T11:26:20.487Z,36.05
2022-11-22T11:29:38.467Z,33.78
2022-11-22T11:32:54.103Z,35.60
2022-11-22T11:36:02.438Z,33.88
2022-11-22T11:39:06.547Z,33.80
2022-11-22T11:42:23.618Z,36.75
2022-11-22T11:45:30.188Z,37.60
2022-11-22T11:48:41.049Z,33.20
2022-11-22T11:55:06.177Z,40.10
2022-11-22T11:58:21.323Z,33.60
2022-11-22T12:04:52.382Z,37.23
2022-11-22T12:07:55.203Z,35.28
2022-11-22T12:11:03.912Z,30.60
2022-11-22T12:14:19.926Z,33.92
2022-11-22T12:17:28.820Z,36.08
2022-11-22T12:24:41.426Z,41.75
2022-11-22T12:27:37.878Z,36.70
2022-11-22T12:30:44.067Z,35.97
2022-11-22T12:33:55.365Z,37.38
2022-11-22T12:37:06.643Z,35.40
2022-11-22T12:40:18.177Z,36.38
2022-11-22T12:43:27.360Z,34.70
2022-11-22T12:46:39.600Z,36.03
2022-11-22T12:49:46.770Z,35.97
2022-11-22T12:52:56.504Z,39.73
2022-11-22T12:56:03.350Z,27.75
2022-11-22T12:59:21.043Z,31.48
2022-11-22T13:02:33.366Z,33.70
2022-11-22T13:05:45.270Z,36.15
2022-11-22T13:09:03.222Z,36.93
2022-11-22T13:12:11.842Z,31.60
2022-11-22T13:15:17.982Z,33.35
2022-11-22T13:18:21.874Z,36.97
2022-11-22T13:21:32.417Z,38.58
2022-11-22T13:24:49.145Z,39.37
2022-11-22T13:27:54.357Z,37.45
2022-11-22T13:31:15.164Z,34.38
2022-11-22T13:34:26.539Z,35.58
2022-11-22T13:37:31.971Z,36.55
2022-11-22T13:40:40.978Z,36.50
2022-11-22T13:43:54.573Z,36.03
2022-11-22T13:47:01.478Z,39.72
2022-11-22T13:50:53.511Z,35.47
2022-11-22T13:54:41.930Z,33.70
2022-11-22T13:57:47.324Z,36.10
2022-11-22T14:00:50.314Z,37.08
2022-11-22T14:03:54.459Z,35.95
2022-11-22T14:07:02.780Z,36.83
2022-11-22T14:10:21.990Z,37.03
2022-11-22T14:13:36.867Z,34.20
2022-11-22T14:16:54.815Z,37.25
2022-11-22T14:20:06.534Z,34.67
2022-11-22T14:23:19.829Z,37.33
2022-11-22T14:26:30.549Z,37.58
2022-11-22T14:30:04.526Z,39.30
2022-11-22T14:33:16.783Z,30.50
2022-11-22T14:36:19.546Z,35.80
2022-11-22T14:40:07.145Z,34.75
2022-11-22T14:43:29.725Z,38.05
2022-11-22T14:46:56.542Z,35.80
2022-11-22T14:50:01.157Z,36.75
2022-11-22T14:53:16.611Z,35.78
2022-11-22T14:56:25.944Z,39.05
2022-11-22T14:59:52.165Z,34.70
2022-11-22T15:03:31.521Z,35.23
2022-11-22T15:09:18.106Z,35.30
2022-11-22T15:10:26.850Z,33.55
2022-11-22T15:13:46.346Z,37.22
2022-11-22T15:58:47.866Z,36.30
2022-11-22T16:01:50.859Z,36.42
2022-11-22T16:06:06.254Z,36.72
2022-11-22T16:08:22.357Z,35.33
2022-11-22T16:11:31.043Z,42.53
2022-11-22T16:14:49.828Z,43.22
2022-11-22T16:17:59.642Z,41.63
2022-11-22T16:21:05.907Z,38.30
2022-11-22T16:24:12.625Z,39.67
2022-11-22T16:27:17.671Z,40.33
2022-11-22T16:30:23.727Z,40.55
2022-11-22T16:33:28.136Z,38.13
2022-11-22T16:36:31.183Z,40.03
2022-11-22T16:39:34.216Z,40.65
2022-11-22T16:42:39.261Z,35.57
2022-11-22T16:45:45.110Z,39.25
2022-11-22T16:48:48.414Z,40.63
2022-11-22T16:55:16.270Z,39.58
2022-11-22T16:58:20.306Z,38.80
2022-11-22T17:01:27.583Z,36.78
2022-11-22T17:04:30.817Z,39.38
2022-11-22T17:07:33.545Z,36.63
2022-11-22T17:10:37.400Z,38.10
2022-11-22T17:13:40.085Z,39.50
2022-11-22T17:16:46.987Z,38.47
2022-11-22T17:19:53.855Z,38.05
2022-11-22T17:22:56.783Z,36.13
2022-11-22T17:25:59.521Z,36.13
2022-11-22T17:29:02.177Z,38.93
2022-11-22T17:32:06.719Z,39.00
2022-11-22T17:35:10.908Z,34.50
2022-11-22T17:38:13.618Z,44.83
2022-11-22T17:41:16.421Z,34.40
2022-11-22T17:44:20.557Z,36.30
2022-11-22T17:47:24.622Z,39.33
2022-11-22T17:50:28.630Z,41.70
2022-11-22T17:53:32.640Z,38.60
2022-11-22T17:56:36.179Z,40.43
2022-11-22T17:59:38.850Z,36.28
2022-11-22T18:02:43.227Z,39.65
2022-11-22T18:05:47.197Z,39.28
2022-11-22T18:08:51.454Z,41.03
2022-11-22T18:11:55.397Z,40.47
2022-11-22T18:14:58.046Z,38.03
2022-11-22T18:18:03.433Z,41.05
2022-11-22T18:21:11.442Z,37.67
2022-11-22T18:24:18.148Z,38.37
2022-11-22T18:27:22.778Z,42.43
2022-11-22T18:30:25.436Z,38.28
2022-11-22T18:33:34.621Z,41.95
2022-11-22T18:36:54.537Z,42.38
2022-11-22T18:39:59.567Z,41.10
2022-11-22T18:43:02.259Z,36.17
2022-11-22T18:46:07.942Z,46.47
2022-11-22T18:49:13.402Z,43.40
2022-11-22T18:52:18.108Z,42.85
2022-11-22T18:55:21.664Z,40.90
2022-11-22T18:58:24.414Z,44.00
2022-11-22T19:01:30.407Z,42.50
2022-11-22T19:04:34.798Z,39.80
2022-11-22T19:07:37.763Z,41.15
2022-11-22T19:10:40.623Z,41.00
2022-11-22T19:13:44.973Z,42.07
2022-11-22T19:16:47.747Z,40.28
2022-11-22T19:19:58.150Z,39.55
2022-11-22T19:23:03.544Z,34.88
2022-11-22T19:26:08.533Z,42.77
2022-11-22T19:29:12.561Z,41.67
2022-11-22T19:35:41.684Z,39.42
2022-11-22T19:38:46.303Z,37.67
2022-11-22T19:41:50.286Z,39.60
2022-11-22T19:44:52.986Z,41.53
2022-11-22T19:47:57.359Z,46.00
2022-11-22T19:51:05.985Z,40.03
2022-11-22T19:54:08.871Z,45.13
2022-11-22T19:57:12.815Z,39.97
2022-11-22T20:00:16.881Z,42.47
2022-11-22T20:03:19.584Z,39.78
2022-11-22T20:06:24.071Z,37.63
2022-11-22T20:09:28.115Z,37.13
2022-11-22T20:12:31.122Z,44.77
2022-11-22T20:15:35.122Z,36.93
2022-11-22T20:18:38.098Z,44.13
2022-11-22T20:21:42.370Z,39.75
2022-11-22T20:24:45.068Z,38.15
2022-11-22T20:27:49.050Z,38.23
2022-11-22T20:30:51.898Z,40.70
2022-11-22T20:33:57.584Z,41.60
2022-11-22T20:37:04.613Z,38.83
2022-11-22T20:40:08.851Z,41.22
2022-11-22T20:43:11.843Z,39.10
2022-11-22T20:46:16.466Z,41.80
2022-11-22T20:52:42.518Z,38.78
2022-11-22T20:55:45.236Z,40.85
2022-11-22T20:58:48.599Z,38.80
2022-11-22T21:01:52.569Z,39.87
2022-11-22T21:04:55.265Z,39.42
2022-11-22T21:08:03.888Z,36.35
2022-11-22T21:11:10.742Z,43.55
2022-11-22T21:14:14.774Z,37.50
2022-11-22T21:17:41.872Z,39.50
2022-11-22T21:20:41.388Z,37.75
2022-11-22T21:23:46.728Z,35.55
2022-11-22T21:26:51.967Z,36.22
2022-11-22T21:29:56.037Z,36.87
2022-11-22T21:33:00.007Z,40.97
2022-11-22T21:36:03.708Z,37.22
2022-11-22T21:39:07.807Z,37.50
2022-11-22T21:42:12.122Z,43.72
2022-11-22T21:45:14.955Z,38.77
2022-11-22T21:48:19.391Z,40.33
2022-11-22T21:51:23.045Z,39.83
2022-11-22T21:54:29.007Z,39.30
2022-11-22T21:57:31.941Z,35.30
2022-11-22T22:00:35.903Z,39.33
2022-11-22T22:03:40.054Z,40.97
2022-11-22T22:06:46.270Z,39.33
2022-11-22T22:09:50.454Z,38.25
2022-11-22T22:12:54.407Z,39.05
2022-11-22T22:15:58.321Z,35.17
2022-11-22T22:19:08.044Z,38.63
2022-11-22T22:22:11.986Z,39.30
2022-11-22T22:25:17.814Z,38.28
2022-11-22T22:28:20.496Z,37.53
2022-11-22T22:31:25.366Z,40.23
2022-11-22T22:34:29.514Z,41.33
2022-11-22T22:37:33.622Z,37.88
2022-11-22T22:40:38.927Z,40.55
2022-11-22T22:43:45.223Z,38.95
2022-11-22T22:46:49.255Z,33.20
2022-11-22T22:49:53.175Z,41.73
2022-11-22T22:52:55.851Z,36.30
2022-11-22T22:56:01.221Z,38.75
2022-11-22T22:59:07.759Z,38.28
2022-11-22T23:02:12.040Z,42.65
2022-11-22T23:05:16.169Z,39.60
2022-11-22T23:08:18.859Z,39.50
2022-11-22T23:11:46.059Z,39.72
2022-11-22T23:14:50.031Z,38.92
2022-11-22T23:17:53.345Z,37.72
2022-11-22T23:21:01.051Z,39.83
2022-11-22T23:24:07.277Z,36.20
2022-11-22T23:27:12.588Z,38.03
2022-11-22T23:30:17.293Z,40.65
2022-11-22T23:33:20.053Z,43.00
2022-11-22T23:36:25.109Z,41.57
2022-11-22T23:39:27.857Z,42.37
2022-11-22T23:42:33.231Z,38.25
2022-11-22T23:45:37.021Z,44.78
2022-11-22T23:48:39.707Z,41.70
2022-11-22T23:55:04.392Z,39.37
2022-11-22T23:58:09.682Z,47.90
